sensor_id;sensor_type;location;lat;lon;timestamp;pressure;altitude;pressure_sealevel;temperature;humidity
62697;BME280;48761;42.680;23.312;2022-11-20T00:24:56;94030.66;;;17.21;55.36
62697;BME280;48761;42.680;23.312;2022-11-20T00:27:23;94039.69;;;17.36;54.96
62697;BME280;48761;42.680;23.312;2022-11-20T00:29:50;94079.59;;;17.65;53.74
62697;BME280;48761;42.680;23.312;2022-11-20T00:32:16;94096.19;;;17.85;54.32
62697;BME280;48761;42.680;23.312;2022-11-20T00:34:42;94106.13;;;17.68;54.14
62697;BME280;48761;42.680;23.312;2022-11-20T00:37:08;94073.22;;;17.66;53.80
62697;BME280;48761;42.680;23.312;2022-11-20T00:39:34;94082.59;;;17.70;53.71
62697;BME280;48761;42.680;23.312;2022-11-20T00:42:00;94076.94;;;17.56;54.74
62697;BME280;48761;42.680;23.312;2022-11-20T00:44:26;94094.19;;;17.70;54.13
62697;BME280;48761;42.680;23.312;2022-11-20T00:46:52;94084.97;;;17.65;54.18
62697;BME280;48761;42.680;23.312;2022-11-20T00:49:19;94082.78;;;17.77;53.79
62697;BME280;48761;42.680;23.312;2022-11-20T00:51:45;94082.59;;;17.70;54.03
62697;BME280;48761;42.680;23.312;2022-11-20T00:54:12;94114.19;;;17.59;54.66
62697;BME280;48761;42.680;23.312;2022-11-20T00:56:37;94113.19;;;17.52;54.28
62697;BME280;48761;42.680;23.312;2022-11-20T00:59:03;94082.31;;;17.40;54.39
62697;BME280;48761;42.680;23.312;2022-11-20T01:01:30;94045.88;;;17.37;54.47
62697;BME280;48761;42.680;23.312;2022-11-20T01:03:58;94070.91;;;17.54;54.61
62697;BME280;48761;42.680;23.312;2022-11-20T01:06:33;94078.63;;;17.32;54.48
62697;BME280;48761;42.680;23.312;2022-11-20T01:09:03;94102.78;;;17.57;54.61
62697;BME280;48761;42.680;23.312;2022-11-20T01:11:33;94093.38;;;17.53;54.72
62697;BME280;48761;42.680;23.312;2022-11-20T01:14:03;94058.78;;;17.58;54.48
62697;BME280;48761;42.680;23.312;2022-11-20T01:16:34;94096.75;;;17.55;54.31
62697;BME280;48761;42.680;23.312;2022-11-20T01:19:05;94090.16;;;17.75;53.83
62697;BME280;48761;42.680;23.312;2022-11-20T01:21:33;94087.31;;;17.76;53.87
62697;BME280;48761;42.680;23.312;2022-11-20T01:24:00;94080.91;;;17.77;53.46
62697;BME280;48761;42.680;23.312;2022-11-20T01:26:29;94035.28;;;17.52;53.83
62697;BME280;48761;42.680;23.312;2022-11-20T01:28:56;94067.84;;;17.74;53.56
62697;BME280;48761;42.680;23.312;2022-11-20T01:31:29;94058.34;;;17.95;52.72
62697;BME280;48761;42.680;23.312;2022-11-20T01:33:57;94061.69;;;18.06;52.41
62697;BME280;48761;42.680;23.312;2022-11-20T01:36:27;94051.31;;;17.94;53.10
62697;BME280;48761;42.680;23.312;2022-11-20T01:38:59;94061.44;;;17.84;53.27
62697;BME280;48761;42.680;23.312;2022-11-20T01:41:26;94035.38;;;18.33;51.44
62697;BME280;48761;42.680;23.312;2022-11-20T01:43:52;94030.41;;;18.21;51.48
62697;BME280;48761;42.680;23.312;2022-11-20T01:46:19;94062.84;;;18.11;52.08
62697;BME280;48761;42.680;23.312;2022-11-20T01:49:08;94058.34;;;17.95;52.85
62697;BME280;48761;42.680;23.312;2022-11-20T01:52:32;94063.97;;;17.68;53.28
62697;BME280;48761;42.680;23.312;2022-11-20T01:55:04;94063.78;;;17.87;52.24
62697;BME280;48761;42.680;23.312;2022-11-20T01:57:33;94083.25;;;17.97;52.17
62697;BME280;48761;42.680;23.312;2022-11-20T02:00:03;94073.69;;;17.78;52.78
62697;BME280;48761;42.680;23.312;2022-11-20T02:02:31;94061.09;;;17.87;52.57
62697;BME280;48761;42.680;23.312;2022-11-20T02:05:02;94089.31;;;17.83;52.35
62697;BME280;48761;42.680;23.312;2022-11-20T02:07:30;94068.09;;;18.04;51.95
62697;BME280;48761;42.680;23.312;2022-11-20T02:09:56;94046.22;;;18.08;51.74
62697;BME280;48761;42.680;23.312;2022-11-20T02:12:22;94092.34;;;17.79;52.80
62697;BME280;48761;42.680;23.312;2022-11-20T02:14:48;94049.69;;;17.76;52.62
62697;BME280;48761;42.680;23.312;2022-11-20T02:17:14;94066.34;;;17.63;53.08
62697;BME280;48761;42.680;23.312;2022-11-20T02:19:40;94063.13;;;17.59;52.90
62697;BME280;48761;42.680;23.312;2022-11-20T02:22:29;94079.78;;;17.72;52.81
62697;BME280;48761;42.680;23.312;2022-11-20T02:24:58;94072.22;;;17.67;52.77
62697;BME280;48761;42.680;23.312;2022-11-20T02:27:26;94052.38;;;17.68;52.86
62697;BME280;48761;42.680;23.312;2022-11-20T02:29:58;94065.72;;;18.10;51.56
62697;BME280;48761;42.680;23.312;2022-11-20T02:32:28;94039.16;;;17.58;52.54
62697;BME280;48761;42.680;23.312;2022-11-20T02:34:55;94083.97;;;17.66;52.98
62697;BME280;48761;42.680;23.312;2022-11-20T02:37:21;94069.88;;;17.55;53.25
62697;BME280;48761;42.680;23.312;2022-11-20T02:39:49;94061.81;;;17.55;53.35
62697;BME280;48761;42.680;23.312;2022-11-20T02:42:15;94053.63;;;17.48;53.67
62697;BME280;48761;42.680;23.312;2022-11-20T02:44:41;94079.25;;;17.68;53.25
62697;BME280;48761;42.680;23.312;2022-11-20T02:47:07;94083.41;;;17.87;52.83
62697;BME280;48761;42.680;23.312;2022-11-20T02:49:34;94065.50;;;17.63;54.02
62697;BME280;48761;42.680;23.312;2022-11-20T02:52:00;94082.66;;;17.62;54.49
62697;BME280;48761;42.680;23.312;2022-11-20T02:54:26;94110.34;;;17.54;55.00
62697;BME280;48761;42.680;23.312;2022-11-20T02:56:52;94094.75;;;17.41;55.45
62697;BME280;48761;42.680;23.312;2022-11-20T02:59:19;94104.47;;;17.50;55.16
62697;BME280;48761;42.680;23.312;2022-11-20T03:01:45;94050.63;;;17.18;55.67
62697;BME280;48761;42.680;23.312;2022-11-20T03:04:11;94058.81;;;17.08;56.32
62697;BME280;48761;42.680;23.312;2022-11-20T03:06:37;94102.31;;;17.29;56.63
62697;BME280;48761;42.680;23.312;2022-11-20T03:09:03;94085.34;;;17.28;56.47
62697;BME280;48761;42.680;23.312;2022-11-20T03:11:29;94128.66;;;17.42;56.74
62697;BME280;48761;42.680;23.312;2022-11-20T03:13:54;94121.63;;;17.24;57.20
62697;BME280;48761;42.680;23.312;2022-11-20T03:16:22;94103.13;;;17.29;57.05
62697;BME280;48761;42.680;23.312;2022-11-20T03:18:49;94110.88;;;17.24;57.17
62697;BME280;48761;42.680;23.312;2022-11-20T03:21:15;94117.25;;;17.31;57.17
62697;BME280;48761;42.680;23.312;2022-11-20T03:23:41;94123.78;;;17.20;57.84
62697;BME280;48761;42.680;23.312;2022-11-20T03:26:19;94112.53;;;17.17;57.49
62697;BME280;48761;42.680;23.312;2022-11-20T03:28:48;94089.84;;;17.11;57.48
62697;BME280;48761;42.680;23.312;2022-11-20T03:31:16;94134.69;;;17.27;57.49
62697;BME280;48761;42.680;23.312;2022-11-20T03:33:43;94128.66;;;17.42;56.80
62697;BME280;48761;42.680;23.312;2022-11-20T03:36:11;94096.41;;;17.08;56.94
62697;BME280;48761;42.680;23.312;2022-11-20T03:38:38;94149.47;;;17.31;57.09
62697;BME280;48761;42.680;23.312;2022-11-20T03:41:07;94125.13;;;17.33;57.08
62697;BME280;48761;42.680;23.312;2022-11-20T03:43:33;94151.13;;;17.32;56.66
62697;BME280;48761;42.680;23.312;2022-11-20T03:45:59;94118.25;;;17.30;56.61
62697;BME280;48761;42.680;23.312;2022-11-20T03:48:26;94159.22;;;17.24;57.26
62697;BME280;48761;42.680;23.312;2022-11-20T03:50:53;94153.84;;;17.24;57.19
62697;BME280;48761;42.680;23.312;2022-11-20T03:53:19;94156.66;;;17.22;57.23
62697;BME280;48761;42.680;23.312;2022-11-20T03:55:50;94160.53;;;17.28;56.93
62697;BME280;48761;42.680;23.312;2022-11-20T03:58:16;94138.03;;;17.29;56.79
62697;BME280;48761;42.680;23.312;2022-11-20T04:00:42;94128.31;;;17.28;56.57
62697;BME280;48761;42.680;23.312;2022-11-20T04:03:08;94082.94;;;16.91;56.96
62697;BME280;48761;42.680;23.312;2022-11-20T04:05:34;94129.47;;;17.09;56.82
62697;BME280;48761;42.680;23.312;2022-11-20T04:08:00;94135.47;;;17.02;56.91
62697;BME280;48761;42.680;23.312;2022-11-20T04:10:33;94086.78;;;16.89;57.00
62697;BME280;48761;42.680;23.312;2022-11-20T04:13:02;94092.66;;;16.84;57.22
62697;BME280;48761;42.680;23.312;2022-11-20T04:15:37;94129.59;;;16.99;57.72
62697;BME280;48761;42.680;23.312;2022-11-20T04:18:17;94094.38;;;16.94;56.67
62697;BME280;48761;42.680;23.312;2022-11-20T04:20:52;94086.31;;;17.02;55.95
62697;BME280;48761;42.680;23.312;2022-11-20T04:23:18;94076.56;;;16.76;57.05
62697;BME280;48761;42.680;23.312;2022-11-20T04:26:00;94098.56;;;16.96;57.23
62697;BME280;48761;42.680;23.312;2022-11-20T04:28:36;94104.75;;;16.97;56.25
62697;BME280;48761;42.680;23.312;2022-11-20T04:31:14;94123.56;;;16.88;56.73
62697;BME280;48761;42.680;23.312;2022-11-20T04:33:50;94164.69;;;17.14;57.22
62697;BME280;48761;42.680;23.312;2022-11-20T04:36:24;94137.81;;;16.97;57.52
62697;BME280;48761;42.680;23.312;2022-11-20T04:38:54;94141.53;;;16.96;57.67
62697;BME280;48761;42.680;23.312;2022-11-20T04:41:22;94151.41;;;16.96;57.57
62697;BME280;48761;42.680;23.312;2022-11-20T04:43:50;94152.94;;;16.98;58.04
62697;BME280;48761;42.680;23.312;2022-11-20T04:46:20;94133.09;;;16.83;58.08
62697;BME280;48761;42.680;23.312;2022-11-20T04:48:47;94119.16;;;16.79;58.47
62697;BME280;48761;42.680;23.312;2022-11-20T04:51:13;94115.16;;;16.83;58.06
62697;BME280;48761;42.680;23.312;2022-11-20T04:53:39;94134.94;;;16.99;58.21
62697;BME280;48761;42.680;23.312;2022-11-20T04:56:07;94151.13;;;17.16;57.52
62697;BME280;48761;42.680;23.312;2022-11-20T04:58:34;94142.00;;;17.00;57.88
62697;BME280;48761;42.680;23.312;2022-11-20T05:01:07;94133.31;;;17.14;57.11
62697;BME280;48761;42.680;23.312;2022-11-20T05:03:34;94105.13;;;17.10;57.13
62697;BME280;48761;42.680;23.312;2022-11-20T05:06:03;94085.63;;;16.91;57.53
62697;BME280;48761;42.680;23.312;2022-11-20T05:08:31;94099.41;;;17.05;56.81
62697;BME280;48761;42.680;23.312;2022-11-20T05:11:09;94055.09;;;16.84;56.98
62697;BME280;48761;42.680;23.312;2022-11-20T05:13:35;94087.84;;;16.96;56.91
62697;BME280;48761;42.680;23.312;2022-11-20T05:16:16;94081.09;;;16.92;57.29
62697;BME280;48761;42.680;23.312;2022-11-20T05:18:43;94085.31;;;16.95;57.18
62697;BME280;48761;42.680;23.312;2022-11-20T05:21:10;94107.81;;;17.10;57.02
62697;BME280;48761;42.680;23.312;2022-11-20T05:23:37;94089.00;;;17.02;56.77
62697;BME280;48761;42.680;23.312;2022-11-20T05:26:03;94106.16;;;17.18;56.67
62697;BME280;48761;42.680;23.312;2022-11-20T05:28:30;94088.66;;;16.97;56.98
62697;BME280;48761;42.680;23.312;2022-11-20T05:31:24;94093.38;;;17.03;57.32
62697;BME280;48761;42.680;23.312;2022-11-20T05:33:50;94104.78;;;17.13;57.23
62697;BME280;48761;42.680;23.312;2022-11-20T05:36:16;94113.47;;;16.99;57.87
62697;BME280;48761;42.680;23.312;2022-11-20T05:38:43;94124.22;;;16.99;57.83
62697;BME280;48761;42.680;23.312;2022-11-20T05:41:19;94132.59;;;16.87;57.97
62697;BME280;48761;42.680;23.312;2022-11-20T05:43:46;94120.22;;;17.03;57.45
62697;BME280;48761;42.680;23.312;2022-11-20T05:46:14;94097.88;;;16.86;58.32
62697;BME280;48761;42.680;23.312;2022-11-20T05:48:42;94132.75;;;16.77;59.10
62697;BME280;48761;42.680;23.312;2022-11-20T05:51:09;94133.25;;;16.73;59.89
62697;BME280;48761;42.680;23.312;2022-11-20T05:53:36;94114.97;;;16.68;60.22
62697;BME280;48761;42.680;23.312;2022-11-20T05:56:06;94118.13;;;16.63;61.70
62697;BME280;48761;42.680;23.312;2022-11-20T05:58:33;94120.78;;;16.55;62.70
62697;BME280;48761;42.680;23.312;2022-11-20T06:01:12;94128.84;;;16.55;62.72
62697;BME280;48761;42.680;23.312;2022-11-20T06:03:39;94130.97;;;16.43;64.21
62697;BME280;48761;42.680;23.312;2022-11-20T06:06:06;94115.97;;;16.23;64.69
62697;BME280;48761;42.680;23.312;2022-11-20T06:08:32;94141.63;;;16.26;65.00
62697;BME280;48761;42.680;23.312;2022-11-20T06:10:58;94132.41;;;16.20;65.29
62697;BME280;48761;42.680;23.312;2022-11-20T06:13:28;94122.97;;;16.16;64.82
62697;BME280;48761;42.680;23.312;2022-11-20T06:15:54;94155.88;;;16.27;64.79
62697;BME280;48761;42.680;23.312;2022-11-20T06:18:20;94068.19;;;15.84;64.83
62697;BME280;48761;42.680;23.312;2022-11-20T06:20:46;94103.16;;;16.09;64.91
62697;BME280;48761;42.680;23.312;2022-11-20T06:23:13;94076.59;;;15.89;65.13
62697;BME280;48761;42.680;23.312;2022-11-20T06:25:40;94146.66;;;16.29;64.56
62697;BME280;48761;42.680;23.312;2022-11-20T06:28:06;94138.78;;;16.28;64.32
62697;BME280;48761;42.680;23.312;2022-11-20T06:30:33;94147.19;;;16.33;64.35
62697;BME280;48761;42.680;23.312;2022-11-20T06:32:59;94127.34;;;16.17;64.31
62697;BME280;48761;42.680;23.312;2022-11-20T06:35:25;94141.16;;;16.39;64.33
62697;BME280;48761;42.680;23.312;2022-11-20T06:37:51;94112.28;;;16.24;64.23
62697;BME280;48761;42.680;23.312;2022-11-20T06:40:17;94150.41;;;16.45;64.12
62697;BME280;48761;42.680;23.312;2022-11-20T06:42:43;94102.53;;;16.15;63.63
62697;BME280;48761;42.680;23.312;2022-11-20T06:45:09;94131.28;;;16.40;63.49
62697;BME280;48761;42.680;23.312;2022-11-20T06:47:35;94145.91;;;16.54;63.04
62697;BME280;48761;42.680;23.312;2022-11-20T06:50:01;94133.16;;;16.47;62.81
62697;BME280;48761;42.680;23.312;2022-11-20T06:52:27;94161.78;;;16.82;60.83
62697;BME280;48761;42.680;23.312;2022-11-20T06:54:53;94184.78;;;16.93;61.59
62697;BME280;48761;42.680;23.312;2022-11-20T06:57:19;94173.53;;;16.89;61.40
62697;BME280;48761;42.680;23.312;2022-11-20T06:59:45;94133.22;;;16.64;61.67
62697;BME280;48761;42.680;23.312;2022-11-20T07:02:11;94165.47;;;16.81;62.14
62697;BME280;48761;42.680;23.312;2022-11-20T07:04:38;94179.75;;;16.90;61.99
62697;BME280;48761;42.680;23.312;2022-11-20T07:07:04;94171.34;;;16.85;61.95
62697;BME280;48761;42.680;23.312;2022-11-20T07:09:30;94158.38;;;16.63;62.44
62697;BME280;48761;42.680;23.312;2022-11-20T07:11:56;94174.84;;;16.77;62.22
62697;BME280;48761;42.680;23.312;2022-11-20T07:14:22;94110.03;;;16.46;61.04
62697;BME280;48761;42.680;23.312;2022-11-20T07:16:53;94170.03;;;16.97;60.24
62697;BME280;48761;42.680;23.312;2022-11-20T07:19:29;94120.13;;;16.61;59.16
62697;BME280;48761;42.680;23.312;2022-11-20T07:21:55;94139.31;;;16.83;59.60
62697;BME280;48761;42.680;23.312;2022-11-20T07:24:22;94128.03;;;16.71;60.07
62697;BME280;48761;42.680;23.312;2022-11-20T07:26:48;94118.78;;;16.57;60.41
62697;BME280;48761;42.680;23.312;2022-11-20T07:39:46;94176.41;;;16.96;59.50
62697;BME280;48761;42.680;23.312;2022-11-20T07:53:04;94159.38;;;16.62;60.26
62697;BME280;48761;42.680;23.312;2022-11-20T07:55:31;94184.41;;;16.79;60.80
62697;BME280;48761;42.680;23.312;2022-11-20T07:57:57;94183.41;;;16.80;59.88
62697;BME280;48761;42.680;23.312;2022-11-20T08:00:24;94196.81;;;16.80;59.84
62697;BME280;48761;42.680;23.312;2022-11-20T08:02:50;94197.16;;;16.77;60.06
62697;BME280;48761;42.680;23.312;2022-11-20T08:05:16;94198.97;;;16.77;60.07
62697;BME280;48761;42.680;23.312;2022-11-20T08:07:43;94153.47;;;16.58;59.97
62697;BME280;48761;42.680;23.312;2022-11-20T08:10:11;94174.50;;;16.80;59.70
62697;BME280;48761;42.680;23.312;2022-11-20T08:12:51;94183.28;;;16.99;58.77
62697;BME280;48761;42.680;23.312;2022-11-20T08:15:18;94169.69;;;17.00;59.39
62697;BME280;48761;42.680;23.312;2022-11-20T08:17:43;94169.38;;;17.03;59.37
62697;BME280;48761;42.680;23.312;2022-11-20T08:20:10;94177.59;;;17.02;59.17
62697;BME280;48761;42.680;23.312;2022-11-20T08:22:36;94177.25;;;17.05;59.45
62697;BME280;48761;42.680;23.312;2022-11-20T08:25:02;94193.13;;;17.33;72.71
62697;BME280;48761;42.680;23.312;2022-11-20T08:27:27;94214.47;;;17.52;73.05
62697;BME280;48761;42.680;23.312;2022-11-20T08:29:53;94186.75;;;17.51;64.15
62697;BME280;48761;42.680;23.312;2022-11-20T08:32:19;94214.94;;;17.72;67.10
62697;BME280;48761;42.680;23.312;2022-11-20T08:34:45;94186.56;;;17.44;61.99
62697;BME280;48761;42.680;23.312;2022-11-20T08:37:11;94207.91;;;17.63;58.56
62697;BME280;48761;42.680;23.312;2022-11-20T08:39:37;94201.88;;;17.44;58.93
62697;BME280;48761;42.680;23.312;2022-11-20T08:42:06;94210.91;;;17.43;61.14
62697;BME280;48761;42.680;23.312;2022-11-20T08:44:33;94212.94;;;17.66;64.61
62697;BME280;48761;42.680;23.312;2022-11-20T08:47:00;94223.34;;;17.61;59.94
62697;BME280;48761;42.680;23.312;2022-11-20T08:49:26;94241.81;;;17.39;62.29
62697;BME280;48761;42.680;23.312;2022-11-20T08:51:52;94221.19;;;17.04;64.29
62697;BME280;48761;42.680;23.312;2022-11-20T08:54:18;94235.81;;;17.10;65.13
62697;BME280;48761;42.680;23.312;2022-11-20T08:56:48;94222.50;;;16.91;67.53
62697;BME280;48761;42.680;23.312;2022-11-20T08:59:25;94168.75;;;16.58;68.99
62697;BME280;48761;42.680;23.312;2022-11-20T09:01:51;94189.50;;;16.56;67.67
62697;BME280;48761;42.680;23.312;2022-11-20T09:04:17;94181.47;;;16.56;65.31
62697;BME280;48761;42.680;23.312;2022-11-20T09:06:47;94200.63;;;16.69;66.52
62697;BME280;48761;42.680;23.312;2022-11-20T09:09:16;94239.63;;;16.90;66.27
62697;BME280;48761;42.680;23.312;2022-11-20T09:11:42;94211.38;;;16.69;67.20
62697;BME280;48761;42.680;23.312;2022-11-20T09:14:08;94211.66;;;16.58;70.06
62697;BME280;48761;42.680;23.312;2022-11-20T09:16:35;94226.03;;;16.49;70.40
62697;BME280;48761;42.680;23.312;2022-11-20T09:19:01;94235.41;;;16.44;71.11
62697;BME280;48761;42.680;23.312;2022-11-20T09:21:30;94205.88;;;16.09;72.10
62697;BME280;48761;42.680;23.312;2022-11-20T09:24:26;94196.91;;;16.00;75.00
62697;BME280;48761;42.680;23.312;2022-11-20T09:26:52;94237.66;;;16.31;76.54
62697;BME280;48761;42.680;23.312;2022-11-20T09:29:17;94237.66;;;16.57;77.59
62697;BME280;48761;42.680;23.312;2022-11-20T09:31:43;94216.78;;;16.43;73.29
62697;BME280;48761;42.680;23.312;2022-11-20T09:34:09;94232.53;;;16.46;73.11
62697;BME280;48761;42.680;23.312;2022-11-20T09:36:35;94212.16;;;16.27;73.53
62697;BME280;48761;42.680;23.312;2022-11-20T09:39:01;94213.38;;;16.06;74.65
62697;BME280;48761;42.680;23.312;2022-11-20T09:47:02;94183.88;;;16.67;72.96
62697;BME280;48761;42.680;23.312;2022-11-20T09:55:09;94180.91;;;16.87;70.58
62697;BME280;48761;42.680;23.312;2022-11-20T09:57:38;94170.13;;;16.71;73.49
62697;BME280;48761;42.680;23.312;2022-11-20T10:00:10;94192.09;;;17.26;73.28
62697;BME280;48761;42.680;23.312;2022-11-20T10:05:39;94186.06;;;17.41;70.74
62697;BME280;48761;42.680;23.312;2022-11-20T10:08:27;94178.84;;;17.33;71.35
62697;BME280;48761;42.680;23.312;2022-11-20T10:24:40;94174.31;;;17.75;69.20
62697;BME280;48761;42.680;23.312;2022-11-20T10:30:11;94193.03;;;17.08;72.94
62697;BME280;48761;42.680;23.312;2022-11-20T10:32:40;94182.63;;;17.05;71.65
62697;BME280;48761;42.680;23.312;2022-11-20T10:35:31;94172.91;;;17.12;71.48
62697;BME280;48761;42.680;23.312;2022-11-20T10:38:00;94160.97;;;16.98;72.08
62697;BME280;48761;42.680;23.312;2022-11-20T10:40:46;94177.03;;;17.42;74.28
62697;BME280;48761;42.680;23.312;2022-11-20T10:43:32;94178.69;;;17.43;75.70
62697;BME280;48761;42.680;23.312;2022-11-20T10:46:09;94180.69;;;17.41;73.25
62697;BME280;48761;42.680;23.312;2022-11-20T10:48:38;94165.25;;;17.34;73.37
62697;BME280;48761;42.680;23.312;2022-11-20T10:51:27;94159.19;;;17.32;73.01
62697;BME280;48761;42.680;23.312;2022-11-20T10:57:08;94174.63;;;17.47;72.25
62697;BME280;48761;42.680;23.312;2022-11-20T11:02:47;94194.09;;;17.16;73.37
62697;BME280;48761;42.680;23.312;2022-11-20T11:05:24;94235.63;;;16.95;75.43
62697;BME280;48761;42.680;23.312;2022-11-20T11:07:55;94237.66;;;16.57;77.00
62697;BME280;48761;42.680;23.312;2022-11-20T11:10:26;94250.47;;;15.55;75.97
62697;BME280;48761;42.680;23.312;2022-11-20T11:12:53;94242.91;;;15.32;74.07
62697;BME280;48761;42.680;23.312;2022-11-20T11:17:51;94237.38;;;15.16;73.19
62697;BME280;48761;42.680;23.312;2022-11-20T11:20:20;94220.56;;;15.05;70.31
62697;BME280;48761;42.680;23.312;2022-11-20T11:22:54;94222.44;;;14.95;70.85
62697;BME280;48761;42.680;23.312;2022-11-20T11:25:37;94228.28;;;14.80;69.94
62697;BME280;48761;42.680;23.312;2022-11-20T11:28:25;94209.25;;;14.83;70.87
62697;BME280;48761;42.680;23.312;2022-11-20T11:30:50;94193.56;;;14.70;72.86
62697;BME280;48761;42.680;23.312;2022-11-20T11:33:28;94207.97;;;14.59;72.24
62697;BME280;48761;42.680;23.312;2022-11-20T11:36:03;94197.66;;;14.64;72.35
62697;BME280;48761;42.680;23.312;2022-11-20T11:38:39;94198.31;;;14.48;72.44
62697;BME280;48761;42.680;23.312;2022-11-20T11:41:09;94170.13;;;14.54;71.77
62697;BME280;48761;42.680;23.312;2022-11-20T11:43:36;94178.53;;;14.59;71.42
62697;BME280;48761;42.680;23.312;2022-11-20T11:46:19;94164.25;;;14.50;70.05
62697;BME280;48761;42.680;23.312;2022-11-20T11:51:56;94193.50;;;14.52;70.32
62697;BME280;48761;42.680;23.312;2022-11-20T11:54:28;94184.41;;;14.44;71.22
62697;BME280;48761;42.680;23.312;2022-11-20T11:56:59;94187.06;;;14.44;69.99
62697;BME280;48761;42.680;23.312;2022-11-20T12:02:40;94182.69;;;14.72;68.90
62697;BME280;48761;42.680;23.312;2022-11-20T12:05:29;94185.25;;;14.73;66.90
62697;BME280;48761;42.680;23.312;2022-11-20T12:13:44;94166.47;;;14.55;68.03
62697;BME280;48761;42.680;23.312;2022-11-20T12:16:14;94152.41;;;14.53;69.86
62697;BME280;48761;42.680;23.312;2022-11-20T12:18:43;94166.47;;;14.55;69.24
62697;BME280;48761;42.680;23.312;2022-11-20T12:21:32;94167.78;;;14.51;68.98
62697;BME280;48761;42.680;23.312;2022-11-20T12:31:56;94201.69;;;14.50;70.74
62697;BME280;48761;42.680;23.312;2022-11-20T12:39:43;94105.66;;;14.00;70.41
62697;BME280;48761;42.680;23.312;2022-11-20T12:42:20;94128.00;;;14.38;68.97
62697;BME280;48761;42.680;23.312;2022-11-20T12:45:06;94122.09;;;14.34;68.32
62697;BME280;48761;42.680;23.312;2022-11-20T12:56:31;94121.25;;;14.33;73.79
62697;BME280;48761;42.680;23.312;2022-11-20T12:59:28;94124.72;;;14.16;75.18
62697;BME280;48761;42.680;23.312;2022-11-20T13:02:25;94124.44;;;13.81;78.19
62697;BME280;48761;42.680;23.312;2022-11-20T13:05:19;94108.09;;;13.36;80.73
62697;BME280;48761;42.680;23.312;2022-11-20T13:07:47;94117.88;;;13.55;80.28
62697;BME280;48761;42.680;23.312;2022-11-20T13:13:01;94124.34;;;13.72;78.79
62697;BME280;48761;42.680;23.312;2022-11-20T13:18:06;94170.84;;;13.80;78.66
62697;BME280;48761;42.680;23.312;2022-11-20T13:20:34;94185.81;;;14.00;78.30
62697;BME280;48761;42.680;23.312;2022-11-20T13:23:02;94134.44;;;13.78;77.96
62697;BME280;48761;42.680;23.312;2022-11-20T13:25:39;94155.25;;;13.85;79.00
62697;BME280;48761;42.680;23.312;2022-11-20T13:30:35;94188.41;;;13.92;77.99
62697;BME280;48761;42.680;23.312;2022-11-20T13:33:08;94132.22;;;13.64;80.05
62697;BME280;48761;42.680;23.312;2022-11-20T13:35:42;94138.03;;;13.29;80.76
62697;BME280;48761;42.680;23.312;2022-11-20T13:38:14;94174.97;;;13.44;80.25
62697;BME280;48761;42.680;23.312;2022-11-20T13:43:42;94152.50;;;13.37;81.04
62697;BME280;48761;42.680;23.312;2022-11-20T13:46:09;94165.41;;;13.51;80.59
62697;BME280;48761;42.680;23.312;2022-11-20T13:48:46;94185.63;;;13.64;80.46
62697;BME280;48761;42.680;23.312;2022-11-20T13:54:05;94183.09;;;13.52;79.81
62697;BME280;48761;42.680;23.312;2022-11-20T13:59:33;94188.13;;;13.75;80.62
62697;BME280;48761;42.680;23.312;2022-11-20T14:02:02;94148.38;;;13.72;80.52
62697;BME280;48761;42.680;23.312;2022-11-20T14:04:36;94197.06;;;14.04;78.71
62697;BME280;48761;42.680;23.312;2022-11-20T14:07:05;94191.03;;;14.02;77.76
62697;BME280;48761;42.680;23.312;2022-11-20T14:09:33;94192.72;;;13.93;79.16
62697;BME280;48761;42.680;23.312;2022-11-20T14:11:59;94168.69;;;13.93;79.48
62697;BME280;48761;42.680;23.312;2022-11-20T14:14:30;94159.50;;;14.06;79.86
62697;BME280;48761;42.680;23.312;2022-11-20T14:17:53;94176.22;;;14.18;79.34
62697;BME280;48761;42.680;23.312;2022-11-20T14:19:55;94173.06;;;14.32;78.46
62697;BME280;48761;42.680;23.312;2022-11-20T14:22:25;94177.03;;;14.18;78.80
62697;BME280;48761;42.680;23.312;2022-11-20T14:27:52;94157.06;;;14.22;79.49
62697;BME280;48761;42.680;23.312;2022-11-20T14:30:21;94171.06;;;14.34;79.51
62697;BME280;48761;42.680;23.312;2022-11-20T14:32:48;94143.31;;;14.17;79.35
62697;BME280;48761;42.680;23.312;2022-11-20T14:35:30;94179.22;;;14.43;79.76
62697;BME280;48761;42.680;23.312;2022-11-20T14:37:57;94189.34;;;14.39;80.18
62697;BME280;48761;42.680;23.312;2022-11-20T14:40:31;94176.53;;;14.05;82.04
62697;BME280;48761;42.680;23.312;2022-11-20T14:42:58;94189.78;;;13.96;83.96
62697;BME280;48761;42.680;23.312;2022-11-20T14:45:25;94192.88;;;14.01;80.68
62697;BME280;48761;42.680;23.312;2022-11-20T14:47:55;94160.88;;;13.82;79.21
62697;BME280;48761;42.680;23.312;2022-11-20T14:50:26;94192.72;;;13.93;78.75
62697;BME280;48761;42.680;23.312;2022-11-20T14:52:59;94181.03;;;14.04;77.52
62697;BME280;48761;42.680;23.312;2022-11-20T14:55:35;94188.31;;;14.12;76.14
62697;BME280;48761;42.680;23.312;2022-11-20T14:58:21;94170.22;;;13.96;76.08
62697;BME280;48761;42.680;23.312;2022-11-20T15:01:02;94193.97;;;14.09;75.41
62697;BME280;48761;42.680;23.312;2022-11-20T15:03:37;94202.16;;;13.97;75.66
62697;BME280;48761;42.680;23.312;2022-11-20T15:06:05;94193.16;;;13.98;74.95
62697;BME280;48761;42.680;23.312;2022-11-20T15:08:32;94188.81;;;13.97;74.70
62697;BME280;48761;42.680;23.312;2022-11-20T15:10:58;94213.78;;;14.06;75.06
62697;BME280;48761;42.680;23.312;2022-11-20T15:13:33;94213.25;;;14.03;75.23
62697;BME280;48761;42.680;23.312;2022-11-20T15:16:01;94216.19;;;14.09;75.11
62697;BME280;48761;42.680;23.312;2022-11-20T15:18:39;94227.44;;;14.13;75.48
62697;BME280;48761;42.680;23.312;2022-11-20T15:21:11;94228.03;;;13.97;75.10
62697;BME280;48761;42.680;23.312;2022-11-20T15:23:38;94236.75;;;13.99;75.24